Time;durP1;ratioP1;P1;durP2;ratioP2;P2;SDS_P1;SDS_P2;PMS_P1;PMS_P2;Temp;Humidity;BMP_temperature;BMP_pressure;BME280_temperature;BME280_humidity;BME280_pressure;Samples;Min_cycle;Max_cycle;Signal;HPM_P1;HPM_P2
2022/08/30 00:02:38;;;;;;;0.97;0.40;;;;;;;;;;5087709;28;20078;-71
2022/08/30 00:05:12;;;;;;;16.97;0.63;;;;;;;;;;5087900;28;20479;-71
2022/08/30 00:07:45;;;;;;;0.23;0.23;;;;;;;;;;5092392;28;20020;-71
2022/08/30 00:10:27;;;;;;;1.57;0.70;;;;;;;;;;5092202;28;20280;-71
2022/08/30 00:13:08;;;;;;;;;;;;;;;;;;;;;
2022/08/30 00:15:44;;;;;;;1.47;0.40;;;;;;;;;;5089359;28;20489;-71
2022/08/30 00:18:17;;;;;;;1.70;0.70;;;;;;;;;;5090068;28;20028;-72
2022/08/30 00:20:49;;;;;;;1.10;0.30;;;;;;;;;;5087020;28;20020;-71
2022/08/30 00:23:29;;;;;;;1.30;0.70;;;;;;;;;;5087123;28;20025;-71
2022/08/30 00:26:07;;;;;;;3.60;0.43;;;;;;;;;;5087141;28;20359;-71
2022/08/30 00:28:35;;;;;;;0.43;0.20;;;;;;;;;;5089537;28;20020;-71
2022/08/30 00:31:02;;;;;;;0.33;0.30;;;;;;;;;;5092867;28;20032;-71
2022/08/30 00:33:29;;;;;;;0.27;0.20;;;;;;;;;;5114694;28;20025;-71
2022/08/30 00:35:56;;;;;;;0.23;0.20;;;;;;;;;;5099556;28;20125;-72
2022/08/30 00:38:23;;;;;;;0.37;0.30;;;;;;;;;;5103993;28;20024;-71
2022/08/30 00:40:51;;;;;;;1.40;0.87;;;;;;;;;;5097234;28;20425;-72
2022/08/30 00:43:21;;;;;;;7.43;0.70;;;;;;;;;;5090806;28;20036;-71
2022/08/30 00:45:49;;;;;;;0.30;0.27;;;;;;;;;;5090883;28;20127;-71
2022/08/30 00:48:16;;;;;;;0.77;0.50;;;;;;;;;;5091127;28;20020;-71
2022/08/30 00:50:52;;;;;;;1.07;0.60;;;;;;;;;;5093193;28;20038;-71
2022/08/30 00:53:22;;;;;;;0.63;0.30;;;;;;;;;;5096010;28;20027;-71
2022/08/30 00:55:49;;;;;;;0.50;0.30;;;;;;;;;;5092233;28;20050;-71
2022/08/30 00:58:22;;;;;;;0.70;0.50;;;;;;;;;;5085226;28;20031;-71
2022/08/30 01:00:52;;;;;;;0.60;0.53;;;;;;;;;;5095898;28;20029;-72
2022/08/30 01:03:20;;;;;;;0.80;0.50;;;;;;;;;;5092166;28;20020;-71
2022/08/30 01:05:48;;;;;;;1.37;0.60;;;;;;;;;;5090691;28;20025;-72
2022/08/30 01:08:15;;;;;;;1.00;0.60;;;;;;;;;;5090580;28;20115;-71
2022/08/30 01:10:43;;;;;;;0.40;0.37;;;;;;;;;;5090205;28;20119;-71
2022/08/30 01:13:12;;;;;;;2.30;0.87;;;;;;;;;;5092488;28;20095;-72
2022/08/30 01:15:40;;;;;;;0.50;0.43;;;;;;;;;;5095441;28;20032;-71
2022/08/30 01:18:10;;;;;;;2.90;1.20;;;;;;;;;;5095645;28;20027;-71
2022/08/30 01:20:40;;;;;;;2.77;0.70;;;;;;;;;;5095333;28;20031;-72
2022/08/30 01:23:12;;;;;;;1.40;0.63;;;;;;;;;;5095502;28;20107;-72
2022/08/30 01:25:41;;;;;;;0.47;0.43;;;;;;;;;;5092271;28;20020;-71
2022/08/30 01:28:13;;;;;;;0.70;0.47;;;;;;;;;;5090138;28;20031;-72
2022/08/30 01:30:41;;;;;;;1.47;0.90;;;;;;;;;;5089842;28;20474;-72
2022/08/30 01:33:09;;;;;;;0.40;0.30;;;;;;;;;;5089994;28;20020;-72
2022/08/30 01:35:57;;;;;;;0.43;0.43;;;;;;;;;;5092555;28;20099;-71
2022/08/30 01:38:28;;;;;;;1.03;0.70;;;;;;;;;;5095408;28;20019;-71
2022/08/30 01:41:01;;;;;;;4.33;0.97;;;;;;;;;;5095295;28;20019;-71
2022/08/30 01:43:31;;;;;;;0.87;0.57;;;;;;;;;;5074498;28;20029;-68
2022/08/30 01:46:09;;;;;;;0.83;0.70;;;;;;;;;;5075026;28;20130;-68
2022/08/30 01:48:37;;;;;;;6.93;0.90;;;;;;;;;;5070594;28;20024;-68
2022/08/30 01:51:10;;;;;;;1.17;0.70;;;;;;;;;;5097352;28;20040;-73
2022/08/30 01:53:42;;;;;;;0.57;0.50;;;;;;;;;;5089751;28;20016;-73
2022/08/30 01:56:14;;;;;;;2.03;1.10;;;;;;;;;;5089524;28;20028;-71
2022/08/30 01:58:51;;;;;;;1.27;0.90;;;;;;;;;;5076230;28;20548;-73
2022/08/30 02:01:20;;;;;;;0.70;0.57;;;;;;;;;;5102435;28;20126;-71
2022/08/30 02:03:54;;;;;;;0.77;0.63;;;;;;;;;;5115148;28;20045;-71
2022/08/30 02:06:31;;;;;;;5.60;0.98;;;;;;;;;;5115158;28;20028;-70
2022/08/30 02:09:02;;;;;;;1.27;0.80;;;;;;;;;;5115010;28;20374;-71
2022/08/30 02:11:33;;;;;;;0.90;0.70;;;;;;;;;;5100056;28;20118;-75
2022/08/30 02:14:07;;;;;;;0.60;0.50;;;;;;;;;;5089426;28;20035;-73
2022/08/30 02:16:34;;;;;;;1.17;0.77;;;;;;;;;;5089292;28;20032;-73
2022/08/30 02:19:11;;;;;;;0.87;0.70;;;;;;;;;;5089241;28;20013;-72
2022/08/30 02:21:38;;;;;;;1.43;0.97;;;;;;;;;;5104436;28;20073;-72
2022/08/30 02:24:06;;;;;;;0.93;0.70;;;;;;;;;;5113904;28;20039;-71
2022/08/30 02:26:36;;;;;;;0.90;0.77;;;;;;;;;;5114521;28;20039;-73
2022/08/30 02:29:05;;;;;;;1.10;0.70;;;;;;;;;;5114450;28;20035;-72
2022/08/30 02:31:35;;;;;;;0.87;0.80;;;;;;;;;;5105897;28;20081;-75
2022/08/30 02:34:03;;;;;;;1.87;0.83;;;;;;;;;;5068647;28;20115;-75
2022/08/30 02:36:33;;;;;;;2.07;1.10;;;;;;;;;;5068670;28;20367;-76
2022/08/30 02:39:10;;;;;;;1.70;0.80;;;;;;;;;;5068805;28;20027;-73
2022/08/30 02:41:58;;;;;;;0.90;0.73;;;;;;;;;;5086942;28;20122;-68
2022/08/30 02:44:27;;;;;;;1.90;1.00;;;;;;;;;;5113584;28;20070;-71
2022/08/30 02:46:55;;;;;;;1.83;1.07;;;;;;;;;;5111975;28;20536;-70
2022/08/30 02:49:44;;;;;;;;;;;;;;;;;;;;;
2022/08/30 02:52:14;;;;;;;1.30;1.00;;;;;;;;;;5096324;28;20097;-70
2022/08/30 02:54:42;;;;;;;0.87;0.63;;;;;;;;;;5091051;28;20094;-71
2022/08/30 02:57:13;;;;;;;9.37;1.43;;;;;;;;;;5099791;28;20047;-70
2022/08/30 02:59:44;;;;;;;2.70;1.07;;;;;;;;;;5108902;28;20499;-70
2022/08/30 03:02:15;;;;;;;3.83;0.87;;;;;;;;;;5107118;28;20034;-70
2022/08/30 03:04:45;;;;;;;0.70;0.40;;;;;;;;;;5109944;28;20024;-73
2022/08/30 03:07:12;;;;;;;16.67;1.57;;;;;;;;;;5095789;28;20032;-73
2022/08/30 03:09:39;;;;;;;0.97;0.70;;;;;;;;;;5095030;28;20078;-76
2022/08/30 03:12:06;;;;;;;5.63;0.53;;;;;;;;;;5092980;28;20038;-72
2022/08/30 03:14:35;;;;;;;0.57;0.33;;;;;;;;;;5093394;28;20028;-71
2022/08/30 03:17:02;;;;;;;5.70;1.40;;;;;;;;;;5106294;28;20123;-69
2022/08/30 03:19:29;;;;;;;1.83;0.90;;;;;;;;;;5108894;28;20027;-76
2022/08/30 03:21:56;;;;;;;0.80;0.60;;;;;;;;;;5108426;28;20020;-77
2022/08/30 03:24:22;;;;;;;1.43;0.77;;;;;;;;;;5108355;28;20082;-76
2022/08/30 03:26:49;;;;;;;2.93;1.27;;;;;;;;;;5095706;28;20089;-69
2022/08/30 03:29:16;;;;;;;1.17;0.53;;;;;;;;;;5092651;28;20031;-74
2022/08/30 03:31:43;;;;;;;0.80;0.40;;;;;;;;;;5092854;28;20054;-74
2022/08/30 03:34:10;;;;;;;1.10;0.67;;;;;;;;;;5092991;28;20467;-75
2022/08/30 03:36:37;;;;;;;0.80;0.60;;;;;;;;;;5103664;28;20024;-70
2022/08/30 03:39:06;;;;;;;0.93;0.63;;;;;;;;;;5111985;28;20065;-70
2022/08/30 03:41:32;;;;;;;1.07;0.70;;;;;;;;;;5107946;28;20107;-70
2022/08/30 03:44:00;;;;;;;0.77;0.50;;;;;;;;;;5108029;28;20522;-72
2022/08/30 03:46:27;;;;;;;1.50;0.77;;;;;;;;;;5098134;28;20085;-69
2022/08/30 03:48:56;;;;;;;1.13;0.50;;;;;;;;;;5087844;28;20032;-72
2022/08/30 03:51:24;;;;;;;0.57;0.50;;;;;;;;;;5092786;28;20112;-72
2022/08/30 03:53:53;;;;;;;0.30;0.30;;;;;;;;;;5092525;28;20483;-72
2022/08/30 03:56:20;;;;;;;0.97;0.50;;;;;;;;;;5085088;28;20035;-72
2022/08/30 03:58:46;;;;;;;9.30;0.77;;;;;;;;;;5054423;28;20383;-72
2022/08/30 04:01:13;;;;;;;1.53;0.60;;;;;;;;;;5090793;28;20020;-72
2022/08/30 04:03:40;;;;;;;0.87;0.50;;;;;;;;;;5107628;28;20024;-73
2022/08/30 04:06:06;;;;;;;1.17;0.77;;;;;;;;;;5101754;28;20020;-72
2022/08/30 04:08:33;;;;;;;0.83;0.63;;;;;;;;;;5087594;28;20024;-71
2022/08/30 04:11:01;;;;;;;1.07;0.70;;;;;;;;;;5087178;28;20089;-72
2022/08/30 04:13:28;;;;;;;17.43;0.97;;;;;;;;;;5092239;28;20084;-72
2022/08/30 04:15:55;;;;;;;2.73;0.80;;;;;;;;;;5095925;28;20031;-72
2022/08/30 04:18:22;;;;;;;1.00;0.80;;;;;;;;;;5112221;28;20051;-71
2022/08/30 04:20:50;;;;;;;1.10;0.70;;;;;;;;;;5112610;28;20073;-72
2022/08/30 04:23:17;;;;;;;0.40;0.30;;;;;;;;;;5112503;28;20030;-72
2022/08/30 04:25:44;;;;;;;0.43;0.30;;;;;;;;;;5105125;28;20130;-72
2022/08/30 04:28:11;;;;;;;6.07;0.80;;;;;;;;;;5086963;28;20067;-72
2022/08/30 04:30:39;;;;;;;1.17;0.70;;;;;;;;;;5086759;28;20085;-72
2022/08/30 04:33:06;;;;;;;1.47;0.93;;;;;;;;;;5086974;28;20028;-72
2022/08/30 04:35:32;;;;;;;1.23;0.53;;;;;;;;;;5090879;28;20028;-72
2022/08/30 04:37:59;;;;;;;3.27;0.80;;;;;;;;;;5072049;28;20028;-71
2022/08/30 04:40:26;;;;;;;1.30;0.70;;;;;;;;;;5071976;28;20031;-72
2022/08/30 04:42:53;;;;;;;0.83;0.47;;;;;;;;;;5071935;28;20032;-72
2022/08/30 04:45:20;;;;;;;1.87;0.70;;;;;;;;;;5071953;28;20108;-72
2022/08/30 04:47:47;;;;;;;0.93;0.60;;;;;;;;;;5104190;28;20027;-71
2022/08/30 04:50:15;;;;;;;0.67;0.40;;;;;;;;;;5107151;28;20478;-72
2022/08/30 04:52:42;;;;;;;1.47;0.60;;;;;;;;;;5098763;28;20024;-71
2022/08/30 04:55:09;;;;;;;4.53;1.03;;;;;;;;;;5086867;28;20020;-72
2022/08/30 04:57:37;;;;;;;0.63;0.60;;;;;;;;;;5106230;28;20470;-72
2022/08/30 05:00:06;;;;;;;3.10;1.03;;;;;;;;;;5112411;28;20055;-71
2022/08/30 05:02:32;;;;;;;0.73;0.53;;;;;;;;;;5112224;28;20480;-72
2022/08/30 05:07:44;;;;;;;0.88;0.35;;;;;;;;;;5094033;28;20123;-71
2022/08/30 05:10:11;;;;;;;0.70;0.30;;;;;;;;;;5086839;28;20040;-72
2022/08/30 05:12:39;;;;;;;1.53;0.50;;;;;;;;;;5086592;28;20024;-72
2022/08/30 05:15:06;;;;;;;0.70;0.40;;;;;;;;;;5086591;28;20081;-72
2022/08/30 05:17:33;;;;;;;0.50;0.30;;;;;;;;;;5103740;28;20035;-72
2022/08/30 05:20:01;;;;;;;0.83;0.60;;;;;;;;;;5114864;28;20019;-74
2022/08/30 05:22:28;;;;;;;0.47;0.30;;;;;;;;;;5115853;28;20028;-72
2022/08/30 05:24:54;;;;;;;0.43;0.30;;;;;;;;;;5115895;28;20028;-75
2022/08/30 05:27:21;;;;;;;0.67;0.40;;;;;;;;;;5101675;28;20060;-73
2022/08/30 05:29:48;;;;;;;0.40;0.40;;;;;;;;;;5095420;28;20028;-69
2022/08/30 05:32:15;;;;;;;1.80;0.57;;;;;;;;;;5091032;28;20040;-71
2022/08/30 05:34:41;;;;;;;0.73;0.50;;;;;;;;;;5090129;28;20028;-73
2022/08/30 05:37:08;;;;;;;0.90;0.60;;;;;;;;;;5101643;28;20078;-72
2022/08/30 05:39:35;;;;;;;1.17;0.63;;;;;;;;;;5109974;28;20031;-68
2022/08/30 05:42:01;;;;;;;1.30;0.87;;;;;;;;;;5113713;28;20374;-74
2022/08/30 05:44:28;;;;;;;0.63;0.43;;;;;;;;;;5115691;28;20024;-71
2022/08/30 05:46:55;;;;;;;2.30;1.07;;;;;;;;;;5105692;28;20099;-71
2022/08/30 05:49:21;;;;;;;12.47;0.83;;;;;;;;;;5095122;28;20124;-72
2022/08/30 05:51:48;;;;;;;1.17;0.70;;;;;;;;;;5094805;28;20107;-73
2022/08/30 05:54:15;;;;;;;1.93;1.00;;;;;;;;;;5091751;28;20035;-73
2022/08/30 05:56:44;;;;;;;0.30;0.30;;;;;;;;;;5096454;28;20163;-73
2022/08/30 05:59:11;;;;;;;0.47;0.33;;;;;;;;;;5110063;28;20016;-72
2022/08/30 06:01:39;;;;;;;0.87;0.57;;;;;;;;;;5110013;28;20016;-74
2022/08/30 06:04:07;;;;;;;1.27;0.77;;;;;;;;;;5112503;28;20020;-70
2022/08/30 06:06:35;;;;;;;0.60;0.53;;;;;;;;;;5108661;28;20020;-70
2022/08/30 06:09:03;;;;;;;3.20;0.77;;;;;;;;;;5096010;28;20024;-72
2022/08/30 06:11:30;;;;;;;1.03;0.60;;;;;;;;;;5113973;28;20102;-74
2022/08/30 06:13:57;;;;;;;1.30;0.70;;;;;;;;;;5115250;28;20102;-74
2022/08/30 06:16:26;;;;;;;0.57;0.43;;;;;;;;;;5106161;28;20032;-73
2022/08/30 06:18:53;;;;;;;1.30;0.90;;;;;;;;;;5089548;28;20368;-72
2022/08/30 06:21:22;;;;;;;0.90;0.37;;;;;;;;;;5089170;28;20034;-74
2022/08/30 06:23:49;;;;;;;0.63;0.30;;;;;;;;;;5089243;28;20036;-71
2022/08/30 06:26:16;;;;;;;0.20;0.20;;;;;;;;;;5094299;28;20035;-72
2022/08/30 06:28:44;;;;;;;1.20;0.50;;;;;;;;;;5113132;28;20029;-70
2022/08/30 06:31:12;;;;;;;1.23;0.83;;;;;;;;;;5114438;28;20070;-70
2022/08/30 06:33:40;;;;;;;1.73;0.83;;;;;;;;;;5114534;28;20134;-71
2022/08/30 06:36:09;;;;;;;1.03;0.70;;;;;;;;;;5112560;28;20027;-71
2022/08/30 06:38:36;;;;;;;0.77;0.53;;;;;;;;;;5091477;28;20103;-70
2022/08/30 06:41:09;;;;;;;2.07;0.53;;;;;;;;;;5088972;28;20173;-71
2022/08/30 06:43:37;;;;;;;0.37;0.33;;;;;;;;;;5088844;28;20028;-74
2022/08/30 06:46:05;;;;;;;1.17;0.90;;;;;;;;;;5089268;28;20024;-72
2022/08/30 06:48:32;;;;;;;10.63;0.87;;;;;;;;;;5111585;28;20023;-69
2022/08/30 06:50:59;;;;;;;0.73;0.53;;;;;;;;;;5114222;28;20032;-70
2022/08/30 06:53:28;;;;;;;1.90;1.00;;;;;;;;;;5099892;28;20031;-70
2022/08/30 06:55:59;;;;;;;1.13;0.80;;;;;;;;;;5089565;28;20344;-70
2022/08/30 06:58:26;;;;;;;1.07;0.40;;;;;;;;;;5073583;28;20076;-70
2022/08/30 07:00:53;;;;;;;0.90;0.50;;;;;;;;;;5070925;28;20021;-71
2022/08/30 07:03:20;;;;;;;0.37;0.33;;;;;;;;;;5068117;28;20030;-71
2022/08/30 07:05:50;;;;;;;0.87;0.60;;;;;;;;;;5068079;28;20020;-70
2022/08/30 07:08:17;;;;;;;6.10;0.70;;;;;;;;;;5106013;28;20031;-71
2022/08/30 07:10:44;;;;;;;0.57;0.53;;;;;;;;;;5110480;28;20039;-71
2022/08/30 07:13:11;;;;;;;1.00;0.70;;;;;;;;;;5102308;28;20056;-71
2022/08/30 07:15:41;;;;;;;2.87;1.00;;;;;;;;;;5093265;28;20063;-71
2022/08/30 07:20:53;;;;;;;0.90;0.57;;;;;;;;;;5113901;28;20093;-70
2022/08/30 07:23:20;;;;;;;1.53;0.43;;;;;;;;;;5110821;28;20072;-70
2022/08/30 07:25:46;;;;;;;0.40;0.40;;;;;;;;;;5108112;28;20019;-71
2022/08/30 07:28:13;;;;;;;0.50;0.50;;;;;;;;;;5089998;28;20049;-71
2022/08/30 07:30:41;;;;;;;0.63;0.57;;;;;;;;;;5087959;28;20028;-71
2022/08/30 07:33:07;;;;;;;1.90;0.80;;;;;;;;;;5089721;28;20119;-70
2022/08/30 07:35:36;;;;;;;3.73;0.60;;;;;;;;;;5092967;28;20024;-70
2022/08/30 07:38:02;;;;;;;1.30;0.70;;;;;;;;;;5108945;28;20028;-70
2022/08/30 07:40:29;;;;;;;9.37;0.77;;;;;;;;;;5112853;28;20066;-70
2022/08/30 07:42:57;;;;;;;0.87;0.63;;;;;;;;;;5113188;28;20084;-71
2022/08/30 07:45:24;;;;;;;4.33;0.90;;;;;;;;;;5110924;28;20074;-69
2022/08/30 07:47:51;;;;;;;0.43;0.43;;;;;;;;;;5093011;28;20023;-69
2022/08/30 07:50:17;;;;;;;3.83;1.27;;;;;;;;;;5087442;28;20063;-69
2022/08/30 07:52:44;;;;;;;1.07;0.77;;;;;;;;;;5087387;28;20016;-70
2022/08/30 07:55:11;;;;;;;2.20;1.20;;;;;;;;;;5088751;28;20028;-70
2022/08/30 07:57:37;;;;;;;17.23;0.87;;;;;;;;;;5103406;28;20416;-71
2022/08/30 08:00:05;;;;;;;0.60;0.43;;;;;;;;;;5092659;28;20027;-71
2022/08/30 08:02:32;;;;;;;0.97;0.67;;;;;;;;;;5092502;28;20031;-71
2022/08/30 08:04:59;;;;;;;0.33;0.33;;;;;;;;;;5092356;28;20051;-71
2022/08/30 08:07:26;;;;;;;1.93;0.87;;;;;;;;;;5100943;28;20032;-71
2022/08/30 08:09:52;;;;;;;0.97;0.67;;;;;;;;;;5107418;28;20023;-71
2022/08/30 08:12:19;;;;;;;1.10;0.60;;;;;;;;;;5107359;28;20052;-71
2022/08/30 08:14:46;;;;;;;2.97;0.63;;;;;;;;;;5107318;28;20028;-71
2022/08/30 08:17:12;;;;;;;0.50;0.50;;;;;;;;;;5099409;28;20024;-71
2022/08/30 08:19:39;;;;;;;1.83;0.83;;;;;;;;;;5092483;28;20020;-71
2022/08/30 08:22:06;;;;;;;1.70;0.90;;;;;;;;;;5092287;28;20020;-71
2022/08/30 08:24:32;;;;;;;1.10;0.60;;;;;;;;;;5092301;28;20013;-71
2022/08/30 08:26:59;;;;;;;0.27;0.27;;;;;;;;;;5098098;28;20107;-71
2022/08/30 08:29:26;;;;;;;0.80;0.50;;;;;;;;;;5111593;28;20028;-71
2022/08/30 08:31:55;;;;;;;0.67;0.53;;;;;;;;;;5104976;28;20027;-71
2022/08/30 08:34:22;;;;;;;2.00;0.40;;;;;;;;;;5107175;28;20036;-71
2022/08/30 08:36:51;;;;;;;1.07;0.73;;;;;;;;;;5102370;28;20032;-71
2022/08/30 08:39:18;;;;;;;0.67;0.60;;;;;;;;;;5086929;28;20063;-71
2022/08/30 08:41:56;;;;;;;0.63;0.23;;;;;;;;;;5092154;28;20016;-71
2022/08/30 08:44:23;;;;;;;0.87;0.70;;;;;;;;;;5109558;28;20031;-71
2022/08/30 08:47:12;;;;;;;0.80;0.70;;;;;;;;;;5111855;28;20016;-71
2022/08/30 08:49:40;;;;;;;0.10;0.10;;;;;;;;;;5112443;28;20098;-71
2022/08/30 08:54:56;;;;;;;0.50;0.50;;;;;;;;;;5070837;28;20043;-71
2022/08/30 08:57:23;;;;;;;0.10;0.10;;;;;;;;;;5070487;28;20697;-71
2022/08/30 08:59:53;;;;;;;0.20;0.20;;;;;;;;;;5070431;28;20037;-71
2022/08/30 09:02:19;;;;;;;0.77;0.63;;;;;;;;;;5072209;28;20024;-71
2022/08/30 09:04:46;;;;;;;0.47;0.23;;;;;;;;;;5115177;28;20053;-71
2022/08/30 09:07:22;;;;;;;0.37;0.30;;;;;;;;;;5116363;28;20474;-71
2022/08/30 09:09:49;;;;;;;0.67;0.47;;;;;;;;;;5116096;28;20505;-71
2022/08/30 09:12:16;;;;;;;1.13;0.60;;;;;;;;;;5116224;28;20034;-71
2022/08/30 09:14:44;;;;;;;1.07;0.63;;;;;;;;;;5094268;28;20056;-71
2022/08/30 09:17:13;;;;;;;0.97;0.60;;;;;;;;;;5090368;28;20028;-71
2022/08/30 09:19:44;;;;;;;0.80;0.43;;;;;;;;;;5090440;28;20020;-71
2022/08/30 09:22:16;;;;;;;0.40;0.40;;;;;;;;;;5089951;28;20024;-71
2022/08/30 09:24:47;;;;;;;1.13;0.70;;;;;;;;;;5110832;28;20502;-70
2022/08/30 09:27:16;;;;;;;1.00;0.57;;;;;;;;;;5115951;28;20415;-70
2022/08/30 09:29:53;;;;;;;1.53;0.73;;;;;;;;;;5115742;28;20031;-70
2022/08/30 09:32:27;;;;;;;2.40;0.90;;;;;;;;;;5115510;28;20024;-71
2022/08/30 09:34:54;;;;;;;0.47;0.40;;;;;;;;;;5114840;28;20031;-71
2022/08/30 09:37:32;;;;;;;0.73;0.67;;;;;;;;;;5112805;28;20060;-70
2022/08/30 09:39:59;;;;;;;3.30;0.87;;;;;;;;;;5110317;28;20110;-71
2022/08/30 09:42:28;;;;;;;0.90;0.53;;;;;;;;;;5110236;28;20148;-71
2022/08/30 09:45:09;;;;;;;3.00;0.83;;;;;;;;;;5090067;28;20819;-71
2022/08/30 09:47:37;;;;;;;1.97;0.80;;;;;;;;;;5092896;28;20378;-71
2022/08/30 09:50:30;;;;;;;0.50;0.50;;;;;;;;;;5095135;28;20035;-71
2022/08/30 09:53:12;;;;;;;0.93;0.77;;;;;;;;;;5093144;28;20427;-71
2022/08/30 09:55:42;;;;;;;0.73;0.57;;;;;;;;;;5115321;28;20026;-71
2022/08/30 09:58:12;;;;;;;0.23;0.23;;;;;;;;;;5115530;28;20016;-70
2022/08/30 10:00:47;;;;;;;0.60;0.50;;;;;;;;;;5110160;28;20027;-70
2022/08/30 10:03:23;;;;;;;9.40;0.80;;;;;;;;;;5104075;28;20034;-70
2022/08/30 10:05:49;;;;;;;5.10;0.73;;;;;;;;;;5089481;28;20051;-70
2022/08/30 10:08:25;;;;;;;0.90;0.70;;;;;;;;;;5089555;28;20025;-71
2022/08/30 10:10:59;;;;;;;0.47;0.30;;;;;;;;;;5094702;28;20479;-70
2022/08/30 10:13:44;;;;;;;0.30;0.30;;;;;;;;;;5100640;28;20019;-70
2022/08/30 10:16:19;;;;;;;1.88;0.68;;;;;;;;;;5115130;28;20027;-71
2022/08/30 10:18:48;;;;;;;1.35;0.77;;;;;;;;;;5115143;28;20069;-71
2022/08/30 10:21:15;;;;;;;1.43;0.93;;;;;;;;;;5113765;28;20061;-70
2022/08/30 10:23:44;;;;;;;1.03;0.70;;;;;;;;;;5100501;28;20017;-70
2022/08/30 10:26:17;;;;;;;0.80;0.70;;;;;;;;;;5089339;28;20112;-71
2022/08/30 10:29:03;;;;;;;0.63;0.50;;;;;;;;;;5089067;28;20027;-70
2022/08/30 10:31:46;;;;;;;0.45;0.40;;;;;;;;;;5090477;28;20051;-70
2022/08/30 10:34:25;;;;;;;1.30;0.60;;;;;;;;;;5106397;28;20076;-70
2022/08/30 10:37:04;;;;;;;0.37;0.30;;;;;;;;;;5114757;28;20027;-70
2022/08/30 10:39:46;;;;;;;2.63;0.83;;;;;;;;;;5114515;28;20023;-70
2022/08/30 10:42:17;;;;;;;0.53;0.50;;;;;;;;;;5114449;28;20022;-70
2022/08/30 10:44:46;;;;;;;1.40;0.67;;;;;;;;;;5096318;28;20036;-70
2022/08/30 10:47:30;;;;;;;2.50;0.97;;;;;;;;;;5088659;28;20027;-70
2022/08/30 10:50:02;;;;;;;2.03;0.83;;;;;;;;;;5088453;28;20056;-70
2022/08/30 10:52:49;;;;;;;2.20;1.60;;;;;;;;;;5088603;28;20034;-70
2022/08/30 10:55:20;;;;;;;4.80;0.93;;;;;;;;;;5111177;28;20106;-70
2022/08/30 10:57:48;;;;;;;1.33;1.03;;;;;;;;;;5114297;28;20028;-70
2022/08/30 11:00:22;;;;;;;1.17;0.73;;;;;;;;;;5113945;28;20099;-70
2022/08/30 11:03:04;;;;;;;1.77;1.07;;;;;;;;;;5100468;28;20485;-70
2022/08/30 11:05:49;;;;;;;1.57;0.83;;;;;;;;;;5093271;28;20043;-70
2022/08/30 11:08:18;;;;;;;1.38;1.10;;;;;;;;;;5088082;28;20027;-70
2022/08/30 11:11:04;;;;;;;0.80;0.67;;;;;;;;;;5095660;28;20031;-70
2022/08/30 11:13:31;;;;;;;0.38;0.38;;;;;;;;;;5108789;28;20011;-70
2022/08/30 11:16:04;;;;;;;0.90;0.80;;;;;;;;;;5109020;28;20019;-70
2022/08/30 11:18:45;;;;;;;0.40;0.40;;;;;;;;;;5113400;28;20020;-70
2022/08/30 11:21:24;;;;;;;2.87;1.00;;;;;;;;;;5102243;28;20470;-70
2022/08/30 11:23:58;;;;;;;0.77;0.60;;;;;;;;;;5093468;28;20028;-70
2022/08/30 11:26:43;;;;;;;5.13;1.10;;;;;;;;;;5093037;28;20028;-70
2022/08/30 11:29:10;;;;;;;0.57;0.47;;;;;;;;;;5089951;28;20047;-70
2022/08/30 11:31:40;;;;;;;1.27;0.77;;;;;;;;;;5101631;28;20028;-70
2022/08/30 11:34:07;;;;;;;3.43;1.17;;;;;;;;;;5108120;28;20015;-70
2022/08/30 11:36:37;;;;;;;1.23;0.87;;;;;;;;;;5108211;28;20023;-70
2022/08/30 11:39:33;;;;;;;6.27;1.23;;;;;;;;;;5110854;28;20055;-70
2022/08/30 11:42:13;;;;;;;0.65;0.60;;;;;;;;;;5095796;28;20047;-70
2022/08/30 11:44:40;;;;;;;1.73;1.00;;;;;;;;;;5092572;28;20036;-70
2022/08/30 11:47:25;;;;;;;2.60;0.80;;;;;;;;;;5093265;28;20028;-70
2022/08/30 11:50:00;;;;;;;1.10;0.70;;;;;;;;;;5092897;28;20099;-70
2022/08/30 11:52:45;;;;;;;9.95;1.38;;;;;;;;;;5067357;28;20064;-70
2022/08/30 11:55:21;;;;;;;1.38;0.95;;;;;;;;;;5067311;28;20096;-70
2022/08/30 11:58:06;;;;;;;17.43;1.27;;;;;;;;;;5067266;28;20074;-69
2022/08/30 12:00:35;;;;;;;1.92;0.82;;;;;;;;;;5077526;28;20053;-69
2022/08/30 12:03:03;;;;;;;1.17;0.90;;;;;;;;;;5112959;28;20030;-70
2022/08/30 12:05:53;;;;;;;0.97;0.80;;;;;;;;;;5113193;28;20096;-70
2022/08/30 12:08:20;;;;;;;1.43;0.80;;;;;;;;;;5087132;28;20036;-70
2022/08/30 12:10:51;;;;;;;1.30;1.03;;;;;;;;;;5092779;28;20039;-70
2022/08/30 12:13:36;;;;;;;1.33;1.00;;;;;;;;;;5089838;28;20028;-70
2022/08/30 12:16:07;;;;;;;1.17;0.68;;;;;;;;;;5087296;28;20113;-70
2022/08/30 12:18:42;;;;;;;1.17;0.90;;;;;;;;;;5100088;28;20031;-70
2022/08/30 12:21:14;;;;;;;2.35;1.48;;;;;;;;;;5107128;28;20034;-70
2022/08/30 12:23:59;;;;;;;0.97;0.87;;;;;;;;;;5110713;28;20540;-70
2022/08/30 12:26:26;;;;;;;1.33;1.10;;;;;;;;;;5112817;28;20027;-69
2022/08/30 12:29:08;;;;;;;2.20;1.47;;;;;;;;;;5096602;28;20359;-70
2022/08/30 12:31:39;;;;;;;0.80;0.70;;;;;;;;;;5092400;28;20096;-70
2022/08/30 12:34:06;;;;;;;2.13;0.83;;;;;;;;;;5092296;28;20028;-70
2022/08/30 12:36:37;;;;;;;14.87;1.40;;;;;;;;;;5087793;28;20020;-69
2022/08/30 12:39:07;;;;;;;3.10;0.40;;;;;;;;;;5103727;28;20078;-70
2022/08/30 12:41:33;;;;;;;0.70;0.60;;;;;;;;;;5107059;28;20031;-70
2022/08/30 12:44:00;;;;;;;1.57;0.93;;;;;;;;;;5107254;28;20080;-70
2022/08/30 12:46:27;;;;;;;1.53;1.10;;;;;;;;;;5111292;28;20034;-69
2022/08/30 12:48:54;;;;;;;2.33;1.07;;;;;;;;;;5096779;28;20060;-70
2022/08/30 12:51:35;;;;;;;0.67;0.60;;;;;;;;;;5092291;28;20031;-70
2022/08/30 12:54:13;;;;;;;3.10;1.20;;;;;;;;;;5092361;28;20068;-69
2022/08/30 12:56:52;;;;;;;10.73;1.10;;;;;;;;;;5092228;28;20024;-70
2022/08/30 12:59:37;;;;;;;3.23;1.53;;;;;;;;;;5104449;28;20118;-70
2022/08/30 13:02:18;;;;;;;1.73;1.23;;;;;;;;;;5107157;28;20306;-69
2022/08/30 13:04:48;;;;;;;0.77;0.73;;;;;;;;;;5094202;28;20036;-69
2022/08/30 13:07:32;;;;;;;4.67;1.03;;;;;;;;;;5087445;28;20027;-69
2022/08/30 13:10:04;;;;;;;2.30;1.50;;;;;;;;;;5091857;28;20024;-70
2022/08/30 13:12:34;;;;;;;3.07;1.50;;;;;;;;;;5091969;28;20039;-66
2022/08/30 13:15:11;;;;;;;2.43;1.53;;;;;;;;;;5105585;28;20023;-69
2022/08/30 13:17:38;;;;;;;1.50;1.17;;;;;;;;;;5112161;28;20027;-69
2022/08/30 13:20:17;;;;;;;0.77;0.70;;;;;;;;;;5093874;28;20060;-70
2022/08/30 13:23:02;;;;;;;1.87;1.50;;;;;;;;;;5086276;28;20467;-70
2022/08/30 13:25:29;;;;;;;1.45;1.15;;;;;;;;;;5086521;28;20095;-70
2022/08/30 13:27:56;;;;;;;0.83;0.67;;;;;;;;;;5086348;28;20028;-69
2022/08/30 13:30:23;;;;;;;2.57;1.70;;;;;;;;;;5105998;28;20035;-69
2022/08/30 13:32:50;;;;;;;1.27;0.83;;;;;;;;;;5111964;28;20023;-69
2022/08/30 13:35:17;;;;;;;3.43;1.40;;;;;;;;;;5112192;28;20069;-69
2022/08/30 13:37:43;;;;;;;1.93;0.80;;;;;;;;;;5112266;28;20022;-70
2022/08/30 13:40:11;;;;;;;0.63;0.60;;;;;;;;;;5100273;28;20024;-70
2022/08/30 13:42:41;;;;;;;0.60;0.50;;;;;;;;;;5092497;28;20048;-70
2022/08/30 13:45:09;;;;;;;1.20;0.90;;;;;;;;;;5089778;28;20028;-70
2022/08/30 13:47:36;;;;;;;2.13;1.60;;;;;;;;;;5089987;28;20028;-70
2022/08/30 13:50:03;;;;;;;1.27;1.00;;;;;;;;;;5102622;28;20049;-69
2022/08/30 13:52:30;;;;;;;2.00;1.43;;;;;;;;;;5112687;28;20020;-70
2022/08/30 13:54:57;;;;;;;2.60;1.80;;;;;;;;;;5115367;28;20028;-70
2022/08/30 13:57:25;;;;;;;10.00;1.77;;;;;;;;;;5115427;28;20348;-70
2022/08/30 13:59:52;;;;;;;3.43;1.93;;;;;;;;;;5103319;28;20145;-70
2022/08/30 14:02:18;;;;;;;8.10;2.17;;;;;;;;;;5095205;28;20032;-70
2022/08/30 14:04:45;;;;;;;2.13;1.30;;;;;;;;;;5092187;28;20077;-70
2022/08/30 14:07:12;;;;;;;4.50;1.70;;;;;;;;;;5089659;28;20039;-70
2022/08/30 14:09:39;;;;;;;2.33;1.70;;;;;;;;;;5098963;28;20804;-70
2022/08/30 14:12:05;;;;;;;7.10;2.17;;;;;;;;;;5109575;28;20489;-70
2022/08/30 14:14:32;;;;;;;7.63;2.30;;;;;;;;;;5111730;28;20039;-70
2022/08/30 14:16:59;;;;;;;1.47;1.20;;;;;;;;;;5115237;28;20019;-70
2022/08/30 14:19:25;;;;;;;1.87;1.50;;;;;;;;;;5107253;28;20043;-70
2022/08/30 14:21:52;;;;;;;2.67;1.33;;;;;;;;;;5094206;28;20016;-70
2022/08/30 14:24:19;;;;;;;2.80;1.57;;;;;;;;;;5094624;28;20024;-70
2022/08/30 14:26:50;;;;;;;2.97;1.70;;;;;;;;;;5092501;28;20021;-70
2022/08/30 14:29:20;;;;;;;8.53;2.63;;;;;;;;;;5094841;28;20027;-70
2022/08/30 14:31:50;;;;;;;3.00;1.90;;;;;;;;;;5109217;28;20092;-70
2022/08/30 14:34:17;;;;;;;4.17;2.03;;;;;;;;;;5109466;28;20067;-70
2022/08/30 14:36:44;;;;;;;4.30;2.37;;;;;;;;;;5110651;28;20050;-70
2022/08/30 14:39:13;;;;;;;2.97;1.87;;;;;;;;;;5109131;28;20028;-70
2022/08/30 14:41:42;;;;;;;3.57;1.70;;;;;;;;;;5108546;28;20497;-70
2022/08/30 14:44:09;;;;;;;3.13;1.70;;;;;;;;;;5114569;28;20081;-71
2022/08/30 14:46:35;;;;;;;4.80;2.27;;;;;;;;;;5114537;28;20035;-70
2022/08/30 14:49:02;;;;;;;3.40;1.83;;;;;;;;;;5111905;28;20505;-71
2022/08/30 14:51:29;;;;;;;3.93;2.10;;;;;;;;;;5105618;28;20450;-70
2022/08/30 14:53:55;;;;;;;2.00;1.47;;;;;;;;;;5088566;28;20138;-70
2022/08/30 14:56:23;;;;;;;3.73;2.27;;;;;;;;;;5090461;28;20380;-70
2022/08/30 14:58:59;;;;;;;3.70;2.17;;;;;;;;;;5110071;28;20031;-69
2022/08/30 15:01:26;;;;;;;2.90;1.80;;;;;;;;;;5114233;28;20024;-70
2022/08/30 15:03:53;;;;;;;2.13;1.60;;;;;;;;;;5114016;28;20355;-70
2022/08/30 15:06:20;;;;;;;2.53;1.53;;;;;;;;;;5112665;28;20081;-70
2022/08/30 15:08:47;;;;;;;3.30;1.50;;;;;;;;;;5093679;28;20111;-70
2022/08/30 15:11:14;;;;;;;4.10;1.83;;;;;;;;;;5091894;28;20032;-70
2022/08/30 15:13:43;;;;;;;2.00;1.25;;;;;;;;;;5102491;28;20394;-70